Time;durP1;ratioP1;P1;durP2;ratioP2;P2;SDS_P1;SDS_P2;PMS_P1;PMS_P2;Temp;Humidity;BMP_temperature;BMP_pressure;BME280_temperature;BME280_humidity;BME280_pressure;Samples;Min_cycle;Max_cycle;Signal;HPM_P1;HPM_P2
2024/01/20 00:00:58;;;;;;;13.07;6.00;;;0.00;99.90;;;;;;6133377;23;20173;-90
2024/01/20 00:03:37;;;;;;;13.30;5.50;;;0.00;99.90;;;;;;6132624;23;20196;-90
2024/01/20 00:06:07;;;;;;;12.25;7.43;;;0.00;99.90;;;;;;6134754;23;20228;-88
2024/01/20 00:08:47;;;;;;;12.60;7.15;;;0.10;99.90;;;;;;6135628;23;20251;-88
2024/01/20 00:11:17;;;;;;;10.77;7.63;;;0.20;99.90;;;;;;6133081;23;20157;-89
2024/01/20 00:13:44;;;;;;;12.05;7.28;;;0.20;99.90;;;;;;6133194;23;20173;-90
2024/01/20 02:41:48;;;;;;;10.75;8.60;;;0.30;99.90;;;;;;6145311;23;20209;-90
2024/01/20 03:38:34;;;;;;;13.25;10.00;;;0.60;99.90;;;;;;6055841;23;20208;-91
2024/01/20 03:41:19;;;;;;;14.32;9.00;;;0.60;99.90;;;;;;6133330;23;20240;-92
2024/01/20 03:43:53;;;;;;;19.15;9.27;;;0.60;99.90;;;;;;6152381;23;20169;-92
2024/01/20 03:46:23;;;;;;;17.15;8.68;;;0.60;99.90;;;;;;6133045;23;20266;-92
2024/01/20 03:48:59;;;;;;;12.68;8.32;;;1.10;99.90;;;;;;6148342;23;20193;-91
2024/01/20 03:51:45;;;;;;;17.85;10.65;;;0.70;99.90;;;;;;6154208;23;20149;-90
2024/01/20 03:54:48;;;;;;;15.05;9.77;;;0.60;99.90;;;;;;6138008;23;20540;-91
2024/01/20 04:00:20;;;;;;;14.90;10.25;;;0.60;99.90;;;;;;6126395;23;20201;-90
2024/01/20 04:03:03;;;;;;;13.68;9.05;;;0.70;99.90;;;;;;6132290;23;20535;-89
2024/01/20 04:05:30;;;;;;;17.35;10.07;;;0.70;99.90;;;;;;6131967;23;20179;-90
2024/01/20 04:10:52;;;;;;;16.23;9.80;;;0.70;99.90;;;;;;6130671;23;20745;-82
2024/01/20 04:13:19;;;;;;;19.80;9.55;;;0.80;99.90;;;;;;6132694;23;20569;-84
2024/01/20 04:15:46;;;;;;;15.93;10.40;;;0.70;99.90;;;;;;6132383;23;20251;-83
2024/01/20 04:18:13;;;;;;;11.43;8.63;;;0.80;99.90;;;;;;6131776;23;20275;-83
2024/01/20 04:20:39;;;;;;;11.88;8.82;;;0.70;99.90;;;;;;6133455;23;20227;-82
2024/01/20 04:23:06;;;;;;;16.85;8.98;;;0.80;99.90;;;;;;6133743;23;20575;-83
2024/01/20 04:25:33;;;;;;;18.42;10.75;;;0.80;99.90;;;;;;6132904;23;20259;-84
2024/01/20 04:28:01;;;;;;;13.88;8.68;;;0.70;99.90;;;;;;6133006;23;20260;-83
2024/01/20 04:30:28;;;;;;;18.33;9.63;;;0.70;99.90;;;;;;6139188;23;20209;-82
2024/01/20 04:32:55;;;;;;;19.85;11.55;;;0.70;99.90;;;;;;6146220;23;20181;-82
2024/01/20 04:35:21;;;;;;;18.63;12.45;;;0.60;99.90;;;;;;6149907;23;20184;-83
2024/01/20 04:37:48;;;;;;;22.50;10.85;;;0.60;99.90;;;;;;6145050;23;20566;-83
2024/01/20 04:40:15;;;;;;;14.07;10.30;;;0.60;99.90;;;;;;6143056;23;20600;-83
2024/01/20 04:42:42;;;;;;;17.85;11.07;;;0.50;99.90;;;;;;6137744;23;20228;-84
2024/01/20 04:45:13;;;;;;;15.25;10.57;;;0.50;99.90;;;;;;6135074;23;20185;-83
2024/01/20 04:47:40;;;;;;;18.65;11.57;;;0.50;99.90;;;;;;6133657;23;20165;-83
2024/01/20 04:50:08;;;;;;;19.27;13.95;;;0.50;99.90;;;;;;6136805;23;20204;-84
2024/01/20 04:52:34;;;;;;;20.98;12.30;;;0.50;99.90;;;;;;6133041;23;20239;-84
2024/01/20 04:55:01;;;;;;;21.42;13.38;;;0.40;1.00;;;;;;6138097;23;20211;-84
2024/01/20 04:57:28;;;;;;;21.27;13.00;;;0.40;99.90;;;;;;6136036;23;20177;-85
2024/01/20 04:59:55;;;;;;;19.95;12.32;;;0.50;99.90;;;;;;6150033;23;20212;-84
2024/01/20 05:02:23;;;;;;;17.38;11.45;;;0.50;99.90;;;;;;6150159;23;20232;-82
2024/01/20 05:04:50;;;;;;;18.42;11.13;;;0.50;99.90;;;;;;6141378;23;20209;-83
2024/01/20 05:07:17;;;;;;;13.73;10.23;;;0.50;99.90;;;;;;6140324;23;20181;-83
2024/01/20 05:09:44;;;;;;;17.63;10.65;;;0.50;99.90;;;;;;6142558;23;20217;-84
2024/01/20 05:12:12;;;;;;;15.75;10.05;;;0.50;99.90;;;;;;6146456;23;20205;-83
2024/01/20 05:14:38;;;;;;;15.68;11.60;;;0.50;99.90;;;;;;6150323;23;20188;-82
2024/01/20 05:17:06;;;;;;;26.42;16.20;;;0.60;99.90;;;;;;6140079;23;20208;-83
2024/01/20 05:19:37;;;;;;;26.88;17.60;;;0.50;99.90;;;;;;6148636;23;20225;-82
2024/01/20 05:22:04;;;;;;;20.85;15.63;;;0.50;99.90;;;;;;6147719;23;20201;-83
2024/01/20 05:24:31;;;;;;;17.50;14.25;;;0.50;99.90;;;;;;6144270;23;20249;-83
2024/01/20 05:26:59;;;;;;;13.13;9.90;;;0.60;99.90;;;;;;6135739;23;20261;-82
2024/01/20 05:29:26;;;;;;;17.85;10.75;;;0.60;99.90;;;;;;6132917;23;20173;-84
2024/01/20 05:31:53;;;;;;;17.40;10.52;;;0.60;99.90;;;;;;6134993;23;20197;-83
2024/01/20 05:34:20;;;;;;;16.00;11.65;;;0.70;99.90;;;;;;6135093;23;20180;-84
2024/01/20 05:36:48;;;;;;;17.60;12.60;;;0.70;99.90;;;;;;6128945;23;20186;-82
2024/01/20 05:39:15;;;;;;;17.42;11.75;;;0.70;99.90;;;;;;6128373;23;20749;-84
2024/01/20 05:41:42;;;;;;;16.17;10.27;;;0.70;99.90;;;;;;6129843;23;20280;-83
2024/01/20 05:44:09;;;;;;;12.18;9.77;;;0.80;99.90;;;;;;6134800;23;20706;-83
2024/01/20 05:46:35;;;;;;;17.20;10.90;;;0.90;99.90;;;;;;6144211;23;20356;-82
2024/01/20 05:49:02;;;;;;;15.00;10.60;;;0.90;99.90;;;;;;6137482;23;20215;-82
2024/01/20 05:51:29;;;;;;;18.27;11.73;;;0.90;99.90;;;;;;6138040;23;20591;-82
2024/01/20 05:53:57;;;;;;;20.25;11.13;;;0.90;99.90;;;;;;6149938;23;20165;-82
2024/01/20 05:56:24;;;;;;;13.02;10.57;;;1.00;99.90;;;;;;6151616;23;20185;-81
2024/01/20 05:58:51;;;;;;;19.40;12.05;;;1.00;99.90;;;;;;6151151;23;20181;-81
2024/01/20 06:01:19;;;;;;;14.40;9.77;;;1.00;99.90;;;;;;6148322;23;20205;-82
2024/01/20 06:03:45;;;;;;;17.20;9.18;;;1.00;99.90;;;;;;6144664;23;20181;-82
2024/01/20 06:06:13;;;;;;;16.83;10.35;;;0.90;99.90;;;;;;6138930;23;20662;-83
2024/01/20 06:08:40;;;;;;;16.95;11.88;;;0.90;99.90;;;;;;6136071;23;20205;-83
2024/01/20 06:11:09;;;;;;;21.30;12.30;;;0.80;99.90;;;;;;6136794;23;20239;-83
2024/01/20 06:13:37;;;;;;;10.25;9.07;;;0.80;99.90;;;;;;6136990;23;20247;-83
2024/01/20 06:16:04;;;;;;;12.38;10.95;;;0.70;99.90;;;;;;6137427;23;20181;-83
2024/01/20 06:18:31;;;;;;;17.42;9.70;;;0.70;99.90;;;;;;6136991;23;20223;-82
2024/01/20 06:20:59;;;;;;;15.20;10.90;;;0.60;99.90;;;;;;6137520;23;20208;-82
2024/01/20 06:23:26;;;;;;;19.67;10.75;;;0.60;99.90;;;;;;6142869;23;20187;-83
2024/01/20 06:25:53;;;;;;;20.23;11.77;;;0.60;1.00;;;;;;6137146;23;20236;-83
2024/01/20 06:28:21;;;;;;;20.27;10.70;;;0.50;1.00;;;;;;6144104;23;20192;-83
2024/01/20 06:30:49;;;;;;;15.63;10.75;;;0.50;1.00;;;;;;6144006;23;20203;-83
2024/01/20 06:33:16;;;;;;;14.05;10.70;;;0.50;1.00;;;;;;6140358;23;20188;-83
2024/01/20 06:35:43;;;;;;;15.55;11.10;;;0.60;1.00;;;;;;6141775;23;20177;-82
2024/01/20 06:38:10;;;;;;;15.05;10.32;;;0.50;1.00;;;;;;6140050;23;20181;-82
2024/01/20 06:40:37;;;;;;;16.48;9.35;;;0.50;1.00;;;;;;6140751;23;20197;-83
2024/01/20 06:43:04;;;;;;;14.88;10.98;;;0.60;1.00;;;;;;6137495;23;20260;-83
2024/01/20 06:45:34;;;;;;;16.15;11.80;;;0.50;1.00;;;;;;6136975;23;20228;-82
2024/01/20 06:48:02;;;;;;;19.92;11.65;;;0.50;1.00;;;;;;6138459;23;20185;-83
2024/01/20 06:50:29;;;;;;;17.08;11.15;;;0.50;1.00;;;;;;6138046;23;20666;-82
2024/01/20 06:52:56;;;;;;;16.73;10.35;;;0.50;1.00;;;;;;6142713;23;20205;-82
2024/01/20 06:55:23;;;;;;;14.85;9.60;;;0.50;1.00;;;;;;6140321;23;20188;-83
2024/01/20 06:57:50;;;;;;;22.45;11.80;;;0.60;1.00;;;;;;6137481;23;20181;-82
2024/01/20 07:00:17;;;;;;;13.85;10.35;;;0.60;1.00;;;;;;6133384;23;20220;-83
2024/01/20 07:02:45;;;;;;;21.10;9.77;;;0.60;1.00;;;;;;6143506;23;20188;-81
2024/01/20 07:05:12;;;;;;;15.23;10.55;;;0.60;1.00;;;;;;6151404;23;20177;-82
2024/01/20 07:07:39;;;;;;;20.83;12.13;;;0.60;1.00;;;;;;6149554;23;20212;-83
2024/01/20 07:10:08;;;;;;;19.40;10.13;;;0.60;1.00;;;;;;6150561;23;20188;-83
2024/01/20 07:12:35;;;;;;;14.18;9.55;;;0.60;1.00;;;;;;6143186;23;20619;-83
2024/01/20 07:15:02;;;;;;;22.13;11.60;;;0.70;1.00;;;;;;6149165;23;20201;-80
2024/01/20 07:17:29;;;;;;;17.48;10.57;;;0.70;1.00;;;;;;6150467;23;20181;-82
2024/01/20 07:19:58;;;;;;;13.65;10.38;;;0.70;1.00;;;;;;6139409;23;20264;-83
2024/01/20 07:22:25;;;;;;;17.20;11.75;;;0.80;1.00;;;;;;6136824;23;20207;-83
2024/01/20 07:24:52;;;;;;;18.95;12.98;;;0.80;1.00;;;;;;6135204;23;20181;-83
2024/01/20 07:27:18;;;;;;;16.27;11.73;;;0.80;1.00;;;;;;6134918;23;20184;-84
2024/01/20 07:29:45;;;;;;;19.42;10.38;;;0.80;1.00;;;;;;6134742;23;20212;-84
2024/01/20 07:32:12;;;;;;;16.70;10.43;;;0.90;1.00;;;;;;6134533;23;20276;-83
2024/01/20 07:34:39;;;;;;;15.32;10.60;;;0.90;1.00;;;;;;6135542;23;20181;-84
2024/01/20 07:37:07;;;;;;;19.60;11.02;;;1.00;1.00;;;;;;6134832;23;20203;-83
2024/01/20 07:39:34;;;;;;;16.13;10.05;;;1.00;1.00;;;;;;6135447;23;20181;-83
2024/01/20 07:42:01;;;;;;;21.98;11.45;;;1.10;1.00;;;;;;6136522;23;20280;-83
2024/01/20 07:44:28;;;;;;;17.02;13.10;;;1.10;99.90;;;;;;6142079;23;20201;-83
2024/01/20 07:46:55;;;;;;;15.60;10.85;;;1.20;99.90;;;;;;6147754;23;20189;-84
2024/01/20 07:49:21;;;;;;;16.00;10.75;;;1.20;1.00;;;;;;6136428;23;20233;-83
2024/01/20 07:51:49;;;;;;;14.10;10.38;;;1.20;99.90;;;;;;6136868;23;20208;-83
2024/01/20 07:54:17;;;;;;;17.10;11.00;;;1.20;99.90;;;;;;6141911;23;20184;-82
2024/01/20 07:56:44;;;;;;;17.73;11.07;;;1.20;1.00;;;;;;6142980;23;20261;-81
2024/01/20 07:59:11;;;;;;;17.23;11.27;;;1.20;1.00;;;;;;6138771;23;20256;-83
2024/01/20 08:01:37;;;;;;;17.55;11.70;;;1.20;99.90;;;;;;6138505;23;20200;-83
2024/01/20 08:04:04;;;;;;;16.88;12.10;;;1.20;99.90;;;;;;6139844;23;20204;-83
2024/01/20 08:06:31;;;;;;;20.42;10.93;;;1.20;99.90;;;;;;6139301;23;20204;-83
2024/01/20 08:08:58;;;;;;;14.57;10.38;;;1.20;99.90;;;;;;6138773;23;20181;-83
2024/01/20 08:11:26;;;;;;;15.75;10.23;;;1.20;99.90;;;;;;6153935;23;20181;-80
2024/01/20 08:13:53;;;;;;;12.10;9.60;;;1.20;99.90;;;;;;6155136;23;20168;-80
2024/01/20 08:16:20;;;;;;;17.30;10.35;;;1.30;99.90;;;;;;6144505;23;20639;-82
2024/01/20 08:18:47;;;;;;;15.52;9.55;;;1.30;99.90;;;;;;6139622;23;20256;-82
2024/01/20 08:21:14;;;;;;;16.50;10.13;;;1.30;99.90;;;;;;6138964;23;20672;-83
2024/01/20 08:23:41;;;;;;;15.23;10.90;;;1.30;99.90;;;;;;6137688;23;20400;-84
2024/01/20 08:26:08;;;;;;;13.98;9.93;;;1.20;99.90;;;;;;6138787;23;20181;-83
2024/01/20 08:28:36;;;;;;;13.30;9.70;;;1.20;99.90;;;;;;6137869;23;20181;-84
2024/01/20 08:31:03;;;;;;;21.33;12.05;;;1.20;99.90;;;;;;6141817;23;20204;-83
2024/01/20 08:33:30;;;;;;;17.85;11.15;;;1.30;99.90;;;;;;6140358;23;20495;-84
2024/01/20 08:35:56;;;;;;;14.85;10.40;;;1.30;99.90;;;;;;6137375;23;20267;-84
2024/01/20 08:38:23;;;;;;;12.27;9.52;;;1.30;99.90;;;;;;6143371;23;20184;-83
2024/01/20 08:40:50;;;;;;;15.63;11.68;;;1.40;99.90;;;;;;6145704;23;20201;-82
2024/01/20 08:43:17;;;;;;;13.77;10.48;;;1.40;99.90;;;;;;6141256;23;20233;-82
2024/01/20 08:45:45;;;;;;;16.45;10.65;;;1.40;99.90;;;;;;6147936;23;20181;-82
2024/01/20 08:48:12;;;;;;;18.02;11.82;;;1.50;99.90;;;;;;6147333;23;20209;-82
2024/01/20 08:50:40;;;;;;;22.27;11.10;;;1.50;99.90;;;;;;6147513;23;20184;-81
2024/01/20 08:53:07;;;;;;;19.42;9.85;;;1.60;99.90;;;;;;6146302;23;20185;-82
2024/01/20 08:55:33;;;;;;;18.30;12.60;;;1.60;99.90;;;;;;6146285;23;20256;-83
2024/01/20 08:58:01;;;;;;;15.65;11.23;;;1.60;99.90;;;;;;6141555;23;20192;-82
2024/01/20 09:00:29;;;;;;;20.33;10.30;;;1.60;99.90;;;;;;6144794;23;20197;-82
2024/01/20 09:02:57;;;;;;;17.77;10.98;;;1.60;99.90;;;;;;6138281;23;20209;-83
2024/01/20 09:05:24;;;;;;;16.13;9.20;;;1.60;99.90;;;;;;6135094;23;20205;-84
2024/01/20 09:07:51;;;;;;;14.50;11.15;;;1.60;99.90;;;;;;6133164;23;20181;-83
2024/01/20 09:10:18;;;;;;;22.35;10.15;;;1.70;99.90;;;;;;6150695;23;20181;-82
2024/01/20 09:12:45;;;;;;;14.10;9.45;;;1.70;99.90;;;;;;6151660;23;20209;-82
2024/01/20 09:15:12;;;;;;;15.68;9.55;;;1.70;99.90;;;;;;6153045;23;20169;-82
2024/01/20 09:17:38;;;;;;;13.80;10.00;;;1.70;99.90;;;;;;6153389;23;20165;-83
2024/01/20 09:20:08;;;;;;;14.40;10.27;;;1.80;99.90;;;;;;6143217;23;20177;-82
2024/01/20 09:22:36;;;;;;;14.35;10.32;;;1.80;99.90;;;;;;6142770;23;20201;-82
2024/01/20 09:25:03;;;;;;;17.63;10.15;;;1.80;99.90;;;;;;6140630;23;20181;-83
2024/01/20 09:27:30;;;;;;;13.27;10.02;;;1.90;99.90;;;;;;6144440;23;20181;-83
2024/01/20 09:29:57;;;;;;;12.27;9.80;;;1.90;99.90;;;;;;6146069;23;20181;-82
2024/01/20 09:32:24;;;;;;;18.85;10.18;;;1.90;99.90;;;;;;6150525;23;20189;-80
2024/01/20 09:34:51;;;;;;;12.52;9.23;;;1.90;99.90;;;;;;6153529;23;20180;-80
2024/01/20 09:37:19;;;;;;;20.25;9.70;;;1.80;99.90;;;;;;6152250;23;20188;-82
2024/01/20 09:39:46;;;;;;;10.88;9.45;;;1.90;99.90;;;;;;6142062;23;20188;-83
2024/01/20 09:42:13;;;;;;;14.00;9.73;;;1.90;99.90;;;;;;6137117;23;20225;-83
2024/01/20 09:44:39;;;;;;;10.93;9.40;;;1.90;99.90;;;;;;6135336;23;20190;-83
2024/01/20 09:47:09;;;;;;;12.15;8.93;;;1.90;92.80;;;;;;6135243;23;20186;-83
2024/01/20 09:49:36;;;;;;;14.35;9.38;;;1.90;99.90;;;;;;6136104;23;20516;-83
2024/01/20 09:52:09;;;;;;;14.57;10.68;;;1.90;98.10;;;;;;6136255;23;20201;-83
2024/01/20 09:54:43;;;;;;;13.55;9.80;;;1.90;98.60;;;;;;6140919;23;20165;-84
2024/01/20 09:57:11;;;;;;;16.85;10.55;;;1.90;99.90;;;;;;6145752;23;20241;-82
2024/01/20 09:59:40;;;;;;;14.98;10.18;;;2.00;98.20;;;;;;6143879;23;20181;-82
2024/01/20 10:02:08;;;;;;;12.32;9.63;;;2.00;80.80;;;;;;6142979;23;20205;-83
2024/01/20 10:04:37;;;;;;;18.10;10.70;;;2.00;52.90;;;;;;6141576;23;20181;-83
2024/01/20 10:07:04;;;;;;;16.35;11.10;;;2.20;38.20;;;;;;6139399;23;20184;-82
2024/01/20 10:09:31;;;;;;;15.13;10.15;;;2.30;1.00;;;;;;6139699;23;20181;-82
2024/01/20 10:36:14;;;;;;;;;;;;;;;;;;;;;
2024/01/20 10:39:48;;;;;;;13.05;9.40;;;2.20;1.00;;;;;;6141430;23;20195;-90
2024/01/20 11:06:23;;;;;;;12.65;10.48;;;2.60;1.00;;;;;;5953577;23;20286;-83
2024/01/20 11:08:51;;;;;;;13.52;9.73;;;2.70;1.00;;;;;;6148238;23;20173;-83
2024/01/20 11:11:19;;;;;;;14.20;9.15;;;2.60;1.00;;;;;;6147234;23;20203;-83
2024/01/20 11:13:46;;;;;;;16.90;9.60;;;2.60;1.00;;;;;;6140420;23;20181;-83
2024/01/20 11:16:19;;;;;;;11.40;8.18;;;2.50;1.00;;;;;;6143524;23;20232;-82
2024/01/20 11:18:46;;;;;;;16.75;10.43;;;2.50;1.00;;;;;;6142391;23;20187;-85
2024/01/20 11:21:16;;;;;;;14.88;8.70;;;2.40;1.00;;;;;;6138130;23;20209;-84
2024/01/20 11:23:58;;;;;;;11.88;9.48;;;2.40;1.00;;;;;;6154361;23;20221;-81
2024/01/20 11:26:32;;;;;;;13.07;8.25;;;2.70;1.00;;;;;;6155238;23;20205;-83
2024/01/20 11:29:00;;;;;;;13.32;8.93;;;2.90;1.00;;;;;;6147428;23;20171;-84
2024/01/20 11:31:27;;;;;;;14.35;9.30;;;2.90;1.00;;;;;;6142182;23;20226;-85
2024/01/20 11:33:54;;;;;;;13.75;10.15;;;2.70;1.00;;;;;;6141350;23;20187;-85
2024/01/20 11:36:21;;;;;;;15.40;8.80;;;2.90;1.00;;;;;;6140358;23;20201;-84
2024/01/20 11:38:51;;;;;;;19.50;12.25;;;2.90;1.00;;;;;;6138498;23;20261;-83
2024/01/20 11:41:18;;;;;;;12.80;9.07;;;2.90;1.00;;;;;;6138838;23;20232;-84
2024/01/20 11:43:46;;;;;;;15.63;10.70;;;2.90;1.00;;;;;;6144314;23;20161;-83
2024/01/20 11:46:14;;;;;;;13.55;9.52;;;2.90;1.00;;;;;;6143945;23;20543;-83
2024/01/20 11:48:42;;;;;;;14.93;9.20;;;3.00;1.00;;;;;;6138781;23;20663;-83
2024/01/20 11:51:09;;;;;;;15.23;9.52;;;3.00;1.00;;;;;;6141850;23;20200;-84
2024/01/20 11:53:36;;;;;;;14.40;9.30;;;2.90;1.00;;;;;;6145618;23;20225;-84
2024/01/20 11:56:05;;;;;;;19.48;9.93;;;3.00;1.00;;;;;;6138282;23;20538;-84
2024/01/20 11:58:32;;;;;;;13.93;9.43;;;3.00;1.00;;;;;;6131270;23;20181;-84
2024/01/20 12:00:59;;;;;;;13.60;8.75;;;3.00;1.00;;;;;;6139034;23;20188;-84
2024/01/20 12:03:27;;;;;;;15.52;8.95;;;2.90;1.00;;;;;;6139886;23;20177;-84
2024/01/20 12:05:54;;;;;;;15.40;10.35;;;2.90;1.00;;;;;;6133260;23;20209;-83
2024/01/20 12:08:21;;;;;;;16.52;9.85;;;2.80;1.00;;;;;;6134716;23;20173;-85
2024/01/20 12:10:49;;;;;;;20.58;9.35;;;2.80;1.00;;;;;;6134854;23;20192;-85
2024/01/20 12:13:17;;;;;;;14.35;9.05;;;2.70;1.00;;;;;;6135891;23;20211;-84
2024/01/20 12:15:44;;;;;;;20.98;9.70;;;2.70;1.00;;;;;;6134866;23;20228;-84
2024/01/20 12:18:11;;;;;;;13.60;9.32;;;2.80;1.00;;;;;;6135746;23;20252;-84
2024/01/20 12:20:38;;;;;;;16.50;10.45;;;2.90;1.00;;;;;;6135623;23;20181;-84
2024/01/20 12:23:05;;;;;;;14.07;9.98;;;2.90;1.00;;;;;;6136399;23;20220;-84
2024/01/20 12:25:33;;;;;;;15.60;9.75;;;2.90;1.00;;;;;;6135439;23;20201;-82
2024/01/20 12:28:01;;;;;;;19.05;9.98;;;2.90;1.00;;;;;;6136191;23;20215;-84
2024/01/20 12:30:29;;;;;;;16.65;9.45;;;2.90;1.00;;;;;;6138060;23;20559;-85
2024/01/20 12:32:56;;;;;;;13.77;9.32;;;3.00;1.00;;;;;;6139366;23;20179;-85
2024/01/20 12:35:25;;;;;;;19.23;9.30;;;2.90;1.00;;;;;;6137382;23;20284;-84
2024/01/20 12:37:52;;;;;;;10.18;8.07;;;2.90;1.00;;;;;;6136504;23;20216;-83
2024/01/20 12:40:18;;;;;;;15.52;9.40;;;3.00;1.00;;;;;;6137681;23;20469;-84
2024/01/20 12:42:45;;;;;;;13.00;9.23;;;3.00;1.00;;;;;;6136429;23;20202;-84
2024/01/20 12:45:12;;;;;;;12.88;8.35;;;3.00;1.00;;;;;;6142125;23;20249;-84
2024/01/20 12:47:40;;;;;;;13.02;8.48;;;3.10;1.00;;;;;;6147501;23;20204;-84
2024/01/20 12:50:11;;;;;;;11.13;7.88;;;3.00;1.00;;;;;;6148195;23;20181;-83
2024/01/20 12:52:38;;;;;;;12.15;7.63;;;3.00;1.00;;;;;;6144745;23;20158;-84
2024/01/20 12:55:06;;;;;;;15.07;8.15;;;3.10;1.00;;;;;;6143366;23;20181;-83
2024/01/20 12:57:33;;;;;;;11.90;8.30;;;3.10;1.00;;;;;;6142820;23;20180;-83
2024/01/20 13:00:01;;;;;;;13.70;9.20;;;3.10;1.00;;;;;;6143919;23;20204;-84
2024/01/20 13:02:29;;;;;;;17.75;8.50;;;3.20;1.00;;;;;;6139859;23;20574;-84
2024/01/20 13:04:57;;;;;;;9.85;7.85;;;3.20;1.00;;;;;;6135879;23;20181;-84
2024/01/20 13:07:24;;;;;;;11.57;8.60;;;3.20;1.00;;;;;;6135424;23;20236;-84
2024/01/20 13:09:51;;;;;;;15.23;8.05;;;3.20;1.00;;;;;;6136066;23;20568;-85
2024/01/20 13:12:18;;;;;;;13.70;7.70;;;3.10;1.00;;;;;;6144603;23;20187;-84
2024/01/20 13:14:45;;;;;;;10.05;7.28;;;3.10;1.00;;;;;;6143369;23;20209;-84
2024/01/20 13:17:13;;;;;;;9.20;6.90;;;3.10;1.00;;;;;;6134947;23;20201;-84
2024/01/20 13:19:40;;;;;;;19.63;8.20;;;3.10;1.00;;;;;;6135102;23;20181;-84
2024/01/20 13:22:08;;;;;;;11.82;7.80;;;3.10;1.00;;;;;;6137543;23;20223;-83
2024/01/20 13:24:35;;;;;;;12.25;8.60;;;3.10;1.00;;;;;;6142330;23;20192;-83
2024/01/20 13:27:02;;;;;;;16.15;7.90;;;3.20;1.00;;;;;;6142821;23;20231;-82
2024/01/20 13:29:29;;;;;;;11.48;7.63;;;3.20;1.00;;;;;;6141951;23;20218;-82
2024/01/20 13:31:56;;;;;;;11.90;7.82;;;3.20;1.00;;;;;;6142841;23;20212;-83
2024/01/20 13:34:23;;;;;;;16.80;7.60;;;3.20;1.00;;;;;;6141725;23;20205;-84
2024/01/20 13:36:49;;;;;;;9.55;7.38;;;3.20;1.00;;;;;;6137763;23;20232;-82
2024/01/20 13:39:18;;;;;;;11.18;8.50;;;3.30;1.00;;;;;;6133660;23;20187;-81
2024/01/20 13:41:45;;;;;;;9.45;7.35;;;3.50;1.00;;;;;;6136902;23;20208;-81
2024/01/20 13:44:12;;;;;;;12.68;8.82;;;3.40;1.00;;;;;;6135839;23;20213;-81
2024/01/20 13:46:39;;;;;;;16.05;8.77;;;3.50;1.00;;;;;;6134444;23;20197;-81
2024/01/20 13:49:05;;;;;;;11.88;8.80;;;3.50;1.00;;;;;;6139147;23;20285;-80
2024/01/20 13:51:32;;;;;;;13.32;8.23;;;3.60;1.00;;;;;;6139612;23;20188;-82
2024/01/20 13:53:59;;;;;;;10.52;7.63;;;3.60;1.00;;;;;;6142496;23;20173;-85
2024/01/20 13:56:28;;;;;;;11.90;7.03;;;3.50;1.00;;;;;;6139260;23;20201;-84
2024/01/20 13:58:55;;;;;;;12.73;8.82;;;3.50;1.00;;;;;;6144428;23;20185;-84
2024/01/20 14:01:22;;;;;;;11.10;7.38;;;3.50;1.00;;;;;;6145584;23;20188;-83
2024/01/20 14:03:49;;;;;;;9.63;6.90;;;3.50;1.00;;;;;;6139294;23;20208;-83
2024/01/20 14:06:16;;;;;;;12.73;7.03;;;3.50;1.00;;;;;;6135685;23;20209;-83
2024/01/20 14:08:43;;;;;;;11.90;7.47;;;3.50;1.00;;;;;;6139079;23;20184;-83
2024/01/20 14:11:10;;;;;;;11.57;6.78;;;3.50;1.00;;;;;;6135463;23;20188;-84
2024/01/20 14:13:39;;;;;;;12.00;8.52;;;3.50;1.00;;;;;;6135999;23;20228;-83
2024/01/20 14:16:06;;;;;;;16.88;8.95;;;3.50;1.00;;;;;;6136126;23;20235;-83
2024/01/20 14:18:33;;;;;;;10.63;7.70;;;3.50;1.00;;;;;;6149908;23;20200;-83
2024/01/20 14:21:00;;;;;;;10.90;7.82;;;3.50;1.00;;;;;;6141805;23;20204;-83
2024/01/20 14:23:27;;;;;;;10.23;6.72;;;3.50;1.00;;;;;;6133503;23;20272;-82
2024/01/20 14:25:54;;;;;;;18.33;7.63;;;3.50;1.00;;;;;;6134060;23;20539;-84
2024/01/20 14:28:20;;;;;;;18.13;9.90;;;3.50;1.00;;;;;;6133663;23;20182;-83
2024/01/20 14:30:49;;;;;;;17.77;8.63;;;3.50;1.00;;;;;;6140125;23;20268;-82
2024/01/20 14:33:16;;;;;;;10.05;6.75;;;3.50;1.00;;;;;;6150222;23;20177;-79
2024/01/20 14:35:43;;;;;;;9.93;7.50;;;3.50;1.00;;;;;;6155580;23;20185;-81
2024/01/20 14:38:09;;;;;;;16.20;8.10;;;3.50;1.00;;;;;;6152809;23;20177;-82
2024/01/20 14:40:36;;;;;;;10.63;6.43;;;3.50;1.00;;;;;;6152178;23;20165;-82
2024/01/20 14:43:03;;;;;;;13.90;9.35;;;3.50;1.00;;;;;;6151751;23;20181;-82
2024/01/20 14:45:30;;;;;;;10.60;7.00;;;3.40;1.00;;;;;;6147642;23;20201;-83
2024/01/20 14:47:58;;;;;;;11.38;7.63;;;3.40;1.00;;;;;;6140428;23;20235;-83
2024/01/20 14:50:25;;;;;;;12.32;8.10;;;3.40;1.00;;;;;;6143803;23;20189;-82
2024/01/20 14:52:52;;;;;;;12.40;8.48;;;3.40;1.00;;;;;;6143463;23;20205;-83
2024/01/20 14:55:20;;;;;;;11.63;7.65;;;3.30;1.00;;;;;;6138375;23;20572;-83
2024/01/20 14:57:47;;;;;;;10.10;7.35;;;3.30;1.00;;;;;;6138149;23;20232;-84
2024/01/20 15:00:15;;;;;;;16.05;8.20;;;3.30;1.00;;;;;;6137676;23;20265;-84
2024/01/20 15:02:41;;;;;;;11.05;7.90;;;3.30;1.00;;;;;;6143073;23;20710;-83
2024/01/20 15:05:10;;;;;;;19.70;9.15;;;3.20;1.00;;;;;;6143544;23;20209;-83
2024/01/20 15:07:37;;;;;;;10.48;7.38;;;3.20;1.00;;;;;;6139527;23;20217;-82
2024/01/20 15:10:05;;;;;;;8.93;7.50;;;3.20;1.00;;;;;;6148565;23;20181;-82
2024/01/20 15:12:32;;;;;;;11.32;7.68;;;3.20;1.00;;;;;;6149160;23;20184;-82
2024/01/20 15:14:58;;;;;;;16.80;8.63;;;3.10;1.00;;;;;;6150310;23;20181;-82
2024/01/20 15:17:25;;;;;;;15.98;8.57;;;3.10;1.00;;;;;;6144775;23;20225;-83
2024/01/20 15:19:52;;;;;;;12.68;8.20;;;3.10;1.00;;;;;;6140415;23;20184;-83
2024/01/20 15:22:20;;;;;;;15.10;9.20;;;3.10;1.00;;;;;;6137779;23;20225;-85
2024/01/20 15:24:48;;;;;;;15.27;9.93;;;3.00;1.00;;;;;;6138121;23;20181;-83
2024/01/20 15:27:15;;;;;;;10.52;8.30;;;3.00;1.00;;;;;;6137926;23;20232;-83
2024/01/20 15:29:42;;;;;;;12.88;7.55;;;3.00;1.00;;;;;;6140114;23;20204;-83
2024/01/20 15:32:09;;;;;;;12.88;7.75;;;3.00;1.00;;;;;;6138687;23;20229;-83
2024/01/20 15:34:35;;;;;;;15.45;7.45;;;3.00;1.00;;;;;;6140556;23;20185;-84
2024/01/20 15:37:02;;;;;;;12.60;7.80;;;2.90;1.00;;;;;;6140086;23;20249;-84
2024/01/20 15:39:30;;;;;;;17.90;8.50;;;3.00;13.00;;;;;;6137798;23;20648;-84
2024/01/20 15:41:58;;;;;;;16.30;8.27;;;2.90;1.00;;;;;;6138181;23;20239;-84
2024/01/20 15:44:25;;;;;;;16.05;7.90;;;2.80;1.00;;;;;;6137834;23;20715;-85
2024/01/20 15:46:52;;;;;;;12.00;8.82;;;2.80;20.40;;;;;;6137922;23;20212;-81
2024/01/20 15:49:19;;;;;;;11.40;8.15;;;2.80;20.60;;;;;;6137062;23;20240;-83
2024/01/20 15:51:49;;;;;;;11.85;9.80;;;2.70;30.40;;;;;;6136039;23;20213;-83
2024/01/20 15:54:16;;;;;;;10.18;7.25;;;2.60;26.80;;;;;;6136740;23;20165;-82
2024/01/20 15:56:44;;;;;;;16.25;9.20;;;2.60;33.00;;;;;;6136676;23;20668;-84
2024/01/20 15:59:11;;;;;;;14.02;7.95;;;2.50;57.00;;;;;;6137631;23;20204;-82
2024/01/20 16:01:38;;;;;;;12.88;7.95;;;2.50;56.60;;;;;;6134581;23;20204;-82
2024/01/20 16:04:05;;;;;;;12.75;9.23;;;2.50;97.60;;;;;;6140989;23;20193;-83
2024/01/20 16:06:32;;;;;;;16.65;8.63;;;2.50;98.70;;;;;;6140535;23;20256;-83
2024/01/20 16:08:58;;;;;;;12.23;7.90;;;2.50;91.20;;;;;;6136987;23;20252;-83
2024/01/20 16:11:25;;;;;;;12.63;7.82;;;2.40;76.60;;;;;;6135131;23;20205;-83
2024/01/20 16:13:54;;;;;;;14.05;8.27;;;2.40;71.10;;;;;;6135816;23;20177;-82
2024/01/20 16:16:21;;;;;;;15.00;9.10;;;2.40;96.70;;;;;;6142758;23;20755;-82
2024/01/20 16:18:48;;;;;;;14.48;8.35;;;2.40;93.30;;;;;;6139693;23;20264;-82
2024/01/20 16:21:21;;;;;;;12.75;9.10;;;2.40;92.40;;;;;;6136593;23;20257;-82
2024/01/20 16:23:48;;;;;;;23.98;10.68;;;2.30;90.50;;;;;;6136292;23;20192;-83
2024/01/20 16:26:16;;;;;;;15.60;8.85;;;2.30;85.60;;;;;;6136141;23;20197;-83
2024/01/20 16:28:43;;;;;;;14.00;7.70;;;2.20;99.90;;;;;;6134520;23;20244;-82
2024/01/20 16:31:12;;;;;;;13.77;8.52;;;2.20;99.90;;;;;;6134317;23;20181;-83
2024/01/20 16:33:39;;;;;;;8.57;6.82;;;2.20;99.90;;;;;;6138138;23;20184;-83
2024/01/20 16:36:06;;;;;;;14.20;9.00;;;2.20;99.90;;;;;;6142788;23;20205;-82
2024/01/20 16:38:33;;;;;;;14.35;8.35;;;2.20;99.90;;;;;;6140182;23;20208;-82
2024/01/20 16:41:00;;;;;;;11.00;7.90;;;2.20;99.80;;;;;;6144182;23;20217;-82
2024/01/20 16:43:27;;;;;;;14.57;9.27;;;2.20;99.90;;;;;;6136360;23;20224;-84
2024/01/20 16:45:54;;;;;;;11.85;8.60;;;2.20;99.90;;;;;;6135445;23;20201;-82
2024/01/20 16:48:22;;;;;;;11.85;8.85;;;2.10;99.90;;;;;;6136045;23;20180;-82
2024/01/20 16:50:49;;;;;;;16.80;10.95;;;2.10;99.90;;;;;;6141062;23;20188;-83
2024/01/20 16:53:15;;;;;;;12.90;8.15;;;2.10;99.90;;;;;;6147662;23;20210;-82
2024/01/20 16:55:42;;;;;;;12.65;7.75;;;2.00;99.90;;;;;;6148912;23;20201;-81
2024/01/20 16:58:09;;;;;;;10.35;7.53;;;2.00;99.90;;;;;;6148029;23;20192;-82
2024/01/20 17:00:36;;;;;;;13.60;7.75;;;2.00;99.90;;;;;;6149064;23;20188;-80
2024/01/20 17:03:03;;;;;;;11.38;7.68;;;2.00;99.90;;;;;;6148773;23;20212;-81
2024/01/20 18:23:22;;;;;;;14.20;8.35;;;1.10;99.90;;;;;;6113286;23;20204;-83